Time;durP1;ratioP1;P1;durP2;ratioP2;P2;SDS_P1;SDS_P2;PMS_P1;PMS_P2;Temp;Humidity;BMP_temperature;BMP_pressure;BME280_temperature;BME280_humidity;BME280_pressure;Samples;Min_cycle;Max_cycle;Signal;HPM_P1;HPM_P2
2022/01/02 00:02:01;;;;;;;2.90;2.20;;;;;;;19.13;57.33;100993.94;5069069;28;20183;-59
2022/01/02 00:04:29;;;;;;;3.60;2.17;;;;;;;19.13;57.38;100976.78;5050511;28;20414;-59
2022/01/02 00:06:55;;;;;;;3.03;2.00;;;;;;;19.11;57.48;100984.88;5068367;28;20194;-59
2022/01/02 00:09:30;;;;;;;3.00;1.77;;;;;;;19.11;57.34;100990.59;5050991;28;20457;-59
2022/01/02 00:12:00;;;;;;;3.00;2.17;;;;;;;19.12;57.35;100986.53;5067371;28;20532;-59
2022/01/02 00:14:25;;;;;;;3.53;2.17;;;;;;;19.14;56.49;100980.44;5068663;28;20413;-60
2022/01/02 00:16:51;;;;;;;3.10;2.20;;;;;;;19.12;57.62;100989.38;5050199;28;20785;-59
2022/01/02 00:19:21;;;;;;;3.23;2.13;;;;;;;19.11;57.30;100984.06;5071475;28;20180;-59
2022/01/02 00:21:47;;;;;;;3.63;2.33;;;;;;;19.10;57.58;100991.81;5055319;28;20587;-59
2022/01/02 00:24:18;;;;;;;3.60;2.47;;;;;;;19.11;57.73;100976.28;5072388;28;20421;-59
2022/01/02 00:26:45;;;;;;;3.43;2.27;;;;;;;19.14;57.23;100963.28;5054866;28;20424;-59
2022/01/02 00:29:11;;;;;;;3.10;2.00;;;;;;;19.11;57.31;100959.13;5071965;28;20459;-59
2022/01/02 00:31:37;;;;;;;3.73;2.13;;;;;;;19.12;57.56;100954.22;5072218;28;20416;-59
2022/01/02 00:34:03;;;;;;;3.73;2.83;;;;;;;19.09;57.31;100937.78;5071644;28;20425;-60
2022/01/02 00:36:29;;;;;;;3.17;2.10;;;;;;;19.11;57.38;100932.53;5072310;28;20210;-59
2022/01/02 00:38:54;;;;;;;3.00;2.10;;;;;;;19.10;57.37;100943.16;5071966;28;20441;-59
2022/01/02 00:41:26;;;;;;;4.93;2.50;;;;;;;19.09;57.27;100938.63;5065781;28;20270;-59
2022/01/02 00:44:23;;;;;;;3.23;2.20;;;;;;;19.07;57.62;100938.16;5051900;28;20583;-59
2022/01/02 00:47:27;;;;;;;3.37;2.37;;;;;;;19.08;57.58;100924.69;5051703;28;20424;-59
2022/01/02 00:50:09;;;;;;;4.17;2.40;;;;;;;19.06;57.53;100913.59;4970333;28;20473;-59
2022/01/02 00:52:39;;;;;;;3.80;2.60;;;;;;;19.06;57.51;100901.34;5043710;28;20948;-59
2022/01/02 00:55:07;;;;;;;3.40;2.17;;;;;;;19.06;57.50;100899.28;5052310;28;20429;-59
2022/01/02 00:57:37;;;;;;;3.73;2.40;;;;;;;19.08;57.33;100899.78;5051303;28;20774;-59
2022/01/02 01:00:10;;;;;;;3.20;2.60;;;;;;;19.05;57.54;100900.50;5052008;28;20469;-59
2022/01/02 01:02:39;;;;;;;3.73;2.70;;;;;;;19.07;57.33;100900.94;5051774;28;20904;-59
2022/01/02 01:05:06;;;;;;;3.37;2.10;;;;;;;19.09;57.39;100900.59;5052074;28;20527;-59
2022/01/02 01:07:32;;;;;;;3.93;1.80;;;;;;;19.05;57.32;100896.78;5051364;28;20452;-59
2022/01/02 01:09:58;;;;;;;3.23;2.03;;;;;;;19.06;57.05;100898.47;5051574;28;20525;-61
2022/01/02 01:12:23;;;;;;;3.20;2.17;;;;;;;19.04;57.45;100901.72;5033068;28;20428;-59
2022/01/02 01:14:50;;;;;;;3.07;2.00;;;;;;;19.11;57.16;100903.91;5052110;28;20187;-59
2022/01/02 01:17:15;;;;;;;4.10;2.37;;;;;;;19.06;57.61;100913.59;5055430;28;20226;-59
2022/01/02 01:19:41;;;;;;;2.57;1.77;;;;;;;19.09;57.16;100906.31;5071613;28;20418;-59
2022/01/02 01:22:07;;;;;;;3.23;2.13;;;;;;;19.06;57.32;100889.91;5070843;28;20183;-59
2022/01/02 01:24:35;;;;;;;3.43;2.33;;;;;;;19.04;57.71;100893.13;5071361;28;20638;-59
2022/01/02 01:27:03;;;;;;;3.00;2.00;;;;;;;19.03;57.42;100891.47;5053318;28;20190;-59
2022/01/02 01:29:34;;;;;;;4.47;3.00;;;;;;;19.05;57.76;100899.66;5050122;28;20461;-59
2022/01/02 01:32:00;;;;;;;3.47;2.20;;;;;;;19.03;57.29;100907.78;5062976;28;20770;-59
2022/01/02 01:34:25;;;;;;;3.57;2.30;;;;;;;19.05;57.32;100899.66;5071482;28;20429;-59
2022/01/02 01:36:50;;;;;;;3.20;2.17;;;;;;;19.05;57.46;100899.66;5070196;28;20423;-61
2022/01/02 01:39:16;;;;;;;3.70;2.37;;;;;;;19.01;57.61;100893.84;5070361;28;20197;-59
2022/01/02 01:41:41;;;;;;;2.80;2.20;;;;;;;19.04;57.61;100895.13;5071075;28;20754;-59
2022/01/02 01:46:39;;;;;;;3.07;1.93;;;;;;;19.00;57.97;100900.78;5073668;28;20166;-59
2022/01/02 01:49:18;;;;;;;4.20;2.53;;;;;;;18.99;57.99;100896.25;5090878;28;20526;-59
2022/01/02 01:51:44;;;;;;;3.97;2.27;;;;;;;19.00;57.36;100889.31;5091157;28;20178;-59
2022/01/02 01:54:09;;;;;;;5.20;2.40;;;;;;;19.01;57.26;100888.13;5090624;28;20778;-59
2022/01/02 01:56:36;;;;;;;3.33;2.20;;;;;;;19.02;57.19;100866.06;5091185;28;20185;-59
2022/01/02 01:59:02;;;;;;;3.17;2.30;;;;;;;19.00;57.34;100869.31;5072060;28;20218;-59
2022/01/02 02:01:27;;;;;;;3.17;2.30;;;;;;;19.01;57.16;100868.09;5069917;28;20528;-59
2022/01/02 02:03:53;;;;;;;3.43;2.10;;;;;;;19.03;57.20;100867.72;5060207;28;20187;-59
2022/01/02 02:06:18;;;;;;;3.50;2.30;;;;;;;19.01;57.27;100875.88;5032692;28;20208;-59
2022/01/02 02:08:44;;;;;;;3.30;2.30;;;;;;;19.02;57.21;100874.66;5049358;28;20207;-59
2022/01/02 02:11:09;;;;;;;3.83;2.37;;;;;;;18.99;57.30;100876.22;5050435;28;20536;-59
2022/01/02 02:13:34;;;;;;;3.10;2.30;;;;;;;18.99;57.32;100878.25;5050784;28;20183;-59
2022/01/02 02:16:02;;;;;;;3.90;2.60;;;;;;;19.02;57.55;100891.81;5016290;28;20176;-59
2022/01/02 02:18:27;;;;;;;3.20;2.30;;;;;;;19.00;57.54;100897.06;5044392;28;20320;-59
2022/01/02 02:20:53;;;;;;;3.03;2.10;;;;;;;18.98;57.57;100888.03;5070060;28;20417;-59
2022/01/02 02:23:18;;;;;;;3.50;2.40;;;;;;;19.02;57.22;100886.91;5069936;28;20175;-59
2022/01/02 02:25:44;;;;;;;3.50;1.97;;;;;;;18.96;57.64;100887.59;5069878;28;20529;-59
2022/01/02 02:28:11;;;;;;;3.07;2.27;;;;;;;18.97;57.47;100881.47;5068116;28;20178;-59
2022/01/02 02:30:39;;;;;;;3.30;2.13;;;;;;;18.97;57.42;100872.06;5068996;28;20651;-59
2022/01/02 02:33:05;;;;;;;3.13;2.13;;;;;;;18.98;57.20;100865.16;5069693;28;20461;-59
2022/01/02 02:35:31;;;;;;;3.73;2.30;;;;;;;18.96;57.68;100856.13;5069593;28;20425;-59
2022/01/02 02:37:57;;;;;;;3.10;2.00;;;;;;;18.96;57.78;100848.34;5069497;28;20512;-59
2022/01/02 02:40:24;;;;;;;3.77;2.67;;;;;;;18.95;57.55;100855.28;5069258;28;20497;-59
2022/01/02 02:42:53;;;;;;;3.53;2.30;;;;;;;18.97;57.52;100852.84;5068180;28;20203;-59
2022/01/02 02:51:08;;;;;;;3.07;2.10;;;;;;;18.91;57.71;100842.91;5054771;28;20985;-59
2022/01/02 02:53:39;;;;;;;4.00;2.53;;;;;;;18.94;57.63;100829.88;5070278;28;20417;-59
2022/01/02 02:56:14;;;;;;;3.17;2.10;;;;;;;18.93;57.49;100831.94;5069962;28;20772;-60
2022/01/02 02:58:41;;;;;;;3.20;2.40;;;;;;;18.93;57.90;100836.81;5068153;28;20464;-59
2022/01/02 03:01:14;;;;;;;3.10;2.33;;;;;;;18.92;57.19;100827.38;5069598;28;20398;-59
2022/01/02 03:03:40;;;;;;;3.20;1.90;;;;;;;18.93;57.41;100813.94;5068989;28;20418;-59
2022/01/02 03:06:06;;;;;;;2.70;1.70;;;;;;;18.93;57.33;100816.78;5052038;28;20444;-59
2022/01/02 03:08:32;;;;;;;3.80;2.30;;;;;;;18.89;57.48;100818.72;5068995;28;20187;-59
2022/01/02 03:10:58;;;;;;;3.20;1.73;;;;;;;18.88;57.67;100823.63;5069339;28;20591;-59
2022/01/02 03:13:23;;;;;;;4.70;2.13;;;;;;;18.91;57.49;100820.00;5069292;28;20558;-59
2022/01/02 03:15:49;;;;;;;3.47;2.37;;;;;;;18.89;57.66;100813.00;5069655;28;20237;-61
2022/01/02 03:18:14;;;;;;;2.60;1.97;;;;;;;18.88;57.41;100800.75;5069119;28;20178;-59
2022/01/02 03:20:40;;;;;;;3.77;2.20;;;;;;;18.87;57.54;100810.50;5087083;28;20166;-59
2022/01/02 03:23:05;;;;;;;3.10;1.97;;;;;;;18.88;57.60;100806.47;5090070;28;20567;-59
2022/01/02 03:25:30;;;;;;;2.93;1.83;;;;;;;18.89;57.62;100815.88;5089517;28;20200;-59
2022/01/02 03:27:56;;;;;;;3.93;2.37;;;;;;;18.88;57.25;100803.59;5088994;28;20520;-59
2022/01/02 03:30:21;;;;;;;3.00;2.13;;;;;;;18.90;57.62;100800.34;5054655;28;20625;-59
2022/01/02 03:32:47;;;;;;;2.90;2.20;;;;;;;18.85;57.46;100798.63;5076356;28;20531;-59
2022/01/02 03:35:12;;;;;;;3.93;2.20;;;;;;;18.87;57.86;100787.63;5068810;28;20661;-59
2022/01/02 03:37:38;;;;;;;3.60;2.17;;;;;;;18.88;57.63;100795.03;5068017;28;20690;-60
2022/01/02 03:40:04;;;;;;;3.03;2.27;;;;;;;18.86;57.74;100776.56;5068292;28;20175;-59
2022/01/02 03:42:30;;;;;;;3.60;2.30;;;;;;;18.85;57.85;100778.59;5058878;28;20659;-59
2022/01/02 03:44:58;;;;;;;2.90;2.13;;;;;;;18.84;57.46;100768.34;5048936;28;20467;-59
2022/01/02 03:47:24;;;;;;;3.67;2.37;;;;;;;18.87;57.27;100763.91;5048916;28;20179;-60
2022/01/02 03:49:50;;;;;;;3.00;2.30;;;;;;;18.85;57.46;100760.59;5049187;28;20460;-59
2022/01/02 03:52:15;;;;;;;2.50;1.83;;;;;;;18.86;57.35;100747.97;5048370;28;20183;-59
2022/01/02 03:54:41;;;;;;;2.87;2.07;;;;;;;18.85;57.58;100735.69;5052501;28;20195;-59
2022/01/02 03:57:06;;;;;;;3.30;2.20;;;;;;;18.83;57.39;100734.41;5034865;28;20180;-59
2022/01/02 03:59:31;;;;;;;3.10;1.93;;;;;;;18.86;57.53;100725.06;5053107;28;20230;-59
2022/01/02 04:01:57;;;;;;;3.70;2.37;;;;;;;18.87;57.38;100726.72;5053039;28;20171;-59
2022/01/02 04:04:22;;;;;;;3.30;2.27;;;;;;;18.85;57.45;100726.25;5043810;28;20174;-59
2022/01/02 04:06:48;;;;;;;3.03;2.00;;;;;;;18.84;57.61;100739.75;5072805;28;20187;-59
2022/01/02 04:09:13;;;;;;;3.00;2.30;;;;;;;18.86;57.23;100730.81;5074995;28;20213;-59
2022/01/02 04:11:39;;;;;;;3.20;2.00;;;;;;;18.86;57.59;100739.38;5071999;28;20180;-59
2022/01/02 04:14:04;;;;;;;3.00;2.23;;;;;;;18.86;58.09;100742.25;5072951;28;20176;-59
2022/01/02 04:16:30;;;;;;;3.20;2.10;;;;;;;18.84;57.17;100727.47;5072642;28;20183;-59
2022/01/02 04:18:55;;;;;;;4.40;2.60;;;;;;;18.86;57.37;100725.06;5072352;28;20535;-59
2022/01/02 04:21:21;;;;;;;3.10;2.13;;;;;;;18.84;57.58;100721.75;5072784;28;20183;-59
2022/01/02 04:23:46;;;;;;;3.20;2.10;;;;;;;18.83;57.41;100732.38;5072435;28;20182;-59
2022/01/02 04:26:12;;;;;;;3.20;2.40;;;;;;;18.83;57.47;100726.66;5072150;28;20586;-60
2022/01/02 04:28:37;;;;;;;3.00;2.30;;;;;;;18.83;57.39;100723.78;5071480;28;20195;-59
2022/01/02 04:31:02;;;;;;;2.83;2.00;;;;;;;18.85;57.29;100723.41;5072740;28;20225;-59
2022/01/02 04:33:31;;;;;;;2.77;2.17;;;;;;;18.85;56.87;100721.38;5072470;28;20171;-59
2022/01/02 04:35:56;;;;;;;3.00;2.00;;;;;;;18.85;57.21;100711.94;5072552;28;20220;-59
2022/01/02 04:38:22;;;;;;;3.10;2.17;;;;;;;18.81;57.55;100708.19;5071977;28;20776;-59
2022/01/02 04:40:48;;;;;;;3.17;2.40;;;;;;;18.84;57.19;100705.41;5072237;28;20244;-59
2022/01/02 04:43:14;;;;;;;3.13;2.13;;;;;;;18.84;57.41;100708.28;5072224;28;20175;-59
2022/01/02 04:45:39;;;;;;;2.73;2.10;;;;;;;18.86;57.08;100700.13;5071576;28;20929;-59
2022/01/02 04:48:04;;;;;;;5.40;2.27;;;;;;;18.84;57.06;100693.97;5071871;28;20167;-59
2022/01/02 04:50:30;;;;;;;2.87;1.90;;;;;;;18.88;57.35;100694.91;5071623;28;20581;-59
2022/01/02 04:52:55;;;;;;;2.97;2.13;;;;;;;18.85;57.35;100692.75;5072356;28;20504;-59
2022/01/02 04:55:21;;;;;;;3.43;2.67;;;;;;;18.82;57.68;100679.19;5071754;28;20178;-59
2022/01/02 04:57:46;;;;;;;3.07;2.20;;;;;;;18.83;57.51;100680.03;5071929;28;20171;-59
2022/01/02 05:00:12;;;;;;;2.97;2.00;;;;;;;18.81;57.56;100680.41;5072080;28;20234;-59
2022/01/02 05:02:38;;;;;;;2.80;2.20;;;;;;;18.82;57.24;100682.06;5071349;28;20227;-60
2022/01/02 05:05:04;;;;;;;3.20;2.20;;;;;;;18.83;57.43;100680.88;5071690;28;20414;-59
2022/01/02 05:07:29;;;;;;;3.40;2.10;;;;;;;18.83;57.41;100680.88;5071755;28;20295;-59
2022/01/02 05:09:54;;;;;;;3.00;2.07;;;;;;;18.85;56.95;100678.47;5070721;28;20519;-59
2022/01/02 05:12:20;;;;;;;4.43;2.70;;;;;;;18.85;57.04;100684.19;5071833;28;20179;-59
2022/01/02 05:14:45;;;;;;;3.30;1.90;;;;;;;18.82;57.56;100690.63;5071780;28;20168;-59
2022/01/02 05:17:11;;;;;;;3.10;2.20;;;;;;;18.86;57.05;100691.56;5071392;28;20326;-59
2022/01/02 05:19:36;;;;;;;5.57;2.63;;;;;;;18.86;56.79;100690.75;5053739;28;20163;-59
2022/01/02 05:22:02;;;;;;;3.23;2.10;;;;;;;18.84;57.19;100688.25;5053085;28;20174;-59
2022/01/02 05:24:27;;;;;;;2.83;2.00;;;;;;;18.82;57.25;100690.63;5073465;28;20175;-59
2022/01/02 05:26:55;;;;;;;3.07;1.90;;;;;;;18.83;57.29;100689.47;5071602;28;20183;-59
2022/01/02 05:29:20;;;;;;;2.93;2.20;;;;;;;18.84;57.26;100678.84;5073863;28;20278;-59
2022/01/02 05:31:46;;;;;;;2.63;1.93;;;;;;;18.82;57.23;100676.34;5071013;28;20417;-59
2022/01/02 05:34:11;;;;;;;2.70;1.80;;;;;;;18.83;57.06;100669.44;5071041;28;20545;-60
2022/01/02 05:36:37;;;;;;;3.10;1.70;;;;;;;18.83;57.56;100680.88;5071873;28;20163;-59
2022/01/02 05:39:03;;;;;;;3.13;2.07;;;;;;;18.84;57.36;100679.66;5069475;28;20174;-59
2022/01/02 05:41:30;;;;;;;2.57;2.00;;;;;;;18.84;57.28;100685.41;5076691;28;20852;-60
2022/01/02 05:43:56;;;;;;;3.00;1.93;;;;;;;18.85;56.69;100680.47;5091165;28;20182;-59
2022/01/02 05:46:21;;;;;;;3.00;2.20;;;;;;;18.83;57.30;100674.31;5091359;28;20424;-59
2022/01/02 05:48:46;;;;;;;3.70;2.40;;;;;;;18.81;57.34;100671.81;5091138;28;20201;-59
2022/01/02 05:51:12;;;;;;;3.10;2.00;;;;;;;18.85;57.05;100658.44;5091028;28;20174;-59
2022/01/02 05:53:37;;;;;;;3.43;2.30;;;;;;;18.86;56.79;100665.81;5072661;28;20193;-60
2022/01/02 05:56:03;;;;;;;3.20;2.60;;;;;;;18.82;57.44;100672.66;5091169;28;20174;-59
2022/01/02 05:58:28;;;;;;;2.53;2.10;;;;;;;18.85;56.87;100667.03;5072001;28;20576;-59
2022/01/02 06:00:54;;;;;;;2.63;1.97;;;;;;;18.85;57.07;100660.47;5090360;28;20159;-59
2022/01/02 06:03:19;;;;;;;2.63;2.07;;;;;;;18.86;57.06;100674.41;5091012;28;20170;-59
2022/01/02 06:05:45;;;;;;;3.33;2.27;;;;;;;18.87;57.35;100672.38;5091153;28;20194;-60
2022/01/02 06:08:11;;;;;;;2.93;2.20;;;;;;;18.82;57.24;100664.91;5080480;28;20171;-59
2022/01/02 06:10:36;;;;;;;3.20;2.20;;;;;;;18.88;57.11;100666.28;5070842;28;20559;-59
2022/01/02 06:13:02;;;;;;;4.23;2.50;;;;;;;18.84;57.17;100662.50;5070007;28;20183;-59
2022/01/02 06:15:27;;;;;;;3.13;2.00;;;;;;;18.84;56.96;100673.94;5054850;28;20670;-59
2022/01/02 06:17:52;;;;;;;3.93;2.30;;;;;;;18.83;56.96;100666.56;5038160;28;20179;-60
2022/01/02 06:20:18;;;;;;;2.90;2.10;;;;;;;18.84;57.41;100668.22;5070238;28;20167;-60
2022/01/02 06:22:43;;;;;;;3.20;2.17;;;;;;;18.85;57.24;100661.31;5069932;28;20182;-59
2022/01/02 06:25:09;;;;;;;2.87;2.07;;;;;;;18.83;57.09;100666.56;5070548;28;20563;-59
2022/01/02 06:27:34;;;;;;;2.67;1.97;;;;;;;18.83;57.27;100658.00;5070089;28;20532;-59
2022/01/02 06:30:00;;;;;;;3.20;1.90;;;;;;;18.85;57.16;100651.88;5070120;28;20202;-59
2022/01/02 06:32:25;;;;;;;3.97;2.17;;;;;;;18.86;56.83;100648.66;5069410;28;20653;-59
2022/01/02 06:34:50;;;;;;;3.27;2.10;;;;;;;18.84;57.43;100633.06;5069819;28;20201;-59
2022/01/02 06:37:16;;;;;;;2.40;1.70;;;;;;;18.84;57.10;100633.91;5069372;28;20159;-59
2022/01/02 06:39:41;;;;;;;2.87;2.13;;;;;;;18.85;57.18;100634.72;5070143;28;20572;-59
2022/01/02 06:42:07;;;;;;;3.20;2.33;;;;;;;18.86;57.32;100628.63;5070005;28;20205;-59
2022/01/02 06:44:32;;;;;;;3.43;2.40;;;;;;;18.85;57.06;100629.00;5070644;28;20199;-59
2022/01/02 06:46:58;;;;;;;3.00;2.10;;;;;;;18.82;57.02;100627.72;5068950;28;20159;-59
2022/01/02 06:49:23;;;;;;;3.10;2.03;;;;;;;18.85;57.00;100637.56;5069941;28;20199;-59
2022/01/02 06:51:49;;;;;;;3.10;2.20;;;;;;;18.86;56.99;100628.63;5069227;28;20542;-59
2022/01/02 06:54:14;;;;;;;4.27;2.20;;;;;;;18.84;56.72;100636.75;5069522;28;20205;-59
2022/01/02 06:56:39;;;;;;;2.27;1.70;;;;;;;18.87;57.02;100636.00;5069986;28;20191;-59
2022/01/02 06:59:05;;;;;;;3.10;2.03;;;;;;;18.86;56.68;100640.06;5069154;28;20223;-59
2022/01/02 07:01:30;;;;;;;3.00;2.10;;;;;;;18.86;56.95;100642.94;5069680;28;20175;-59
2022/01/02 07:03:56;;;;;;;3.33;2.00;;;;;;;18.86;57.27;100642.94;5069769;28;20198;-59
2022/01/02 07:06:21;;;;;;;2.70;2.00;;;;;;;18.84;57.05;100639.63;5069037;28;20252;-59
2022/01/02 07:08:47;;;;;;;3.03;2.00;;;;;;;18.85;56.98;100632.69;5068715;28;20218;-59
2022/01/02 07:11:12;;;;;;;3.40;2.33;;;;;;;18.85;57.04;100637.56;5068943;28;20307;-59
2022/01/02 07:13:40;;;;;;;2.87;2.10;;;;;;;18.85;57.03;100649.84;5069338;28;20634;-59
2022/01/02 07:16:05;;;;;;;2.70;2.07;;;;;;;18.85;57.11;100647.00;5069061;28;20176;-59
2022/01/02 07:18:30;;;;;;;3.17;1.90;;;;;;;18.86;56.97;100654.38;5068928;28;20433;-61
2022/01/02 07:20:56;;;;;;;2.80;1.80;;;;;;;18.83;56.82;100654.28;5069442;28;20171;-59
2022/01/02 07:23:21;;;;;;;3.93;2.20;;;;;;;18.85;57.13;100652.72;5069073;28;20543;-59
2022/01/02 07:25:47;;;;;;;2.70;1.70;;;;;;;18.87;56.99;100652.34;5069056;28;20649;-60
2022/01/02 07:28:12;;;;;;;3.23;2.20;;;;;;;18.90;56.59;100663.03;5068349;28;20163;-59
2022/01/02 07:30:37;;;;;;;2.87;2.23;;;;;;;18.88;56.91;100666.28;5067144;28;20186;-59
2022/01/02 07:33:03;;;;;;;2.53;1.73;;;;;;;18.84;56.98;100665.38;5067802;28;20214;-59
2022/01/02 07:35:29;;;;;;;2.50;1.90;;;;;;;18.84;56.90;100664.53;5085078;28;20177;-59
2022/01/02 07:37:55;;;;;;;2.90;1.90;;;;;;;18.83;57.27;100652.28;5088374;28;20174;-59
2022/01/02 07:40:20;;;;;;;2.60;1.90;;;;;;;18.89;56.77;100652.78;5067690;28;20448;-59
2022/01/02 07:42:45;;;;;;;2.60;1.80;;;;;;;18.86;56.77;100647.84;5088899;28;20173;-59
2022/01/02 07:45:12;;;;;;;3.10;1.93;;;;;;;18.86;56.85;100651.50;5089486;28;20224;-59
2022/01/02 07:47:38;;;;;;;3.00;2.10;;;;;;;18.90;56.90;100661.00;5088795;28;20181;-60
2022/01/02 07:50:04;;;;;;;3.50;2.17;;;;;;;18.90;56.74;100658.16;5088014;28;20440;-59
2022/01/02 07:52:29;;;;;;;3.00;2.00;;;;;;;18.87;56.86;100653.16;5089999;28;20581;-59
2022/01/02 07:54:55;;;;;;;4.10;2.13;;;;;;;18.88;56.75;100654.00;5089192;28;20170;-59
2022/01/02 07:57:20;;;;;;;3.30;2.33;;;;;;;18.90;57.13;100652.41;5089031;28;20178;-59
2022/01/02 07:59:46;;;;;;;3.13;2.30;;;;;;;18.84;56.76;100639.63;5075693;28;20214;-59
2022/01/02 08:02:11;;;;;;;3.07;2.17;;;;;;;18.91;56.65;100659.78;5068833;28;20163;-59
2022/01/02 08:04:37;;;;;;;2.60;1.70;;;;;;;18.89;56.88;100661.38;5068682;28;20171;-59
2022/01/02 08:07:02;;;;;;;3.00;2.00;;;;;;;18.86;56.72;100671.53;5062331;28;20267;-59
2022/01/02 08:09:28;;;;;;;3.20;2.13;;;;;;;18.88;56.84;100665.44;5048589;28;20268;-59
2022/01/02 08:11:53;;;;;;;2.80;2.10;;;;;;;18.87;56.90;100663.78;5048525;28;20167;-59
2022/01/02 08:14:19;;;;;;;2.67;1.90;;;;;;;18.87;56.87;100673.19;5048767;28;20631;-59
2022/01/02 08:16:45;;;;;;;2.80;1.90;;;;;;;18.90;56.85;100666.72;5049081;28;20180;-59
2022/01/02 08:19:10;;;;;;;3.00;2.30;;;;;;;18.89;56.67;100669.97;5066663;28;20459;-59
2022/01/02 08:21:36;;;;;;;3.67;2.30;;;;;;;18.89;56.84;100672.81;5068334;28;20658;-59
2022/01/02 08:24:01;;;;;;;2.93;2.10;;;;;;;18.88;56.73;100666.28;5050843;28;20179;-59
2022/01/02 08:26:27;;;;;;;2.50;1.90;;;;;;;18.90;57.01;100657.31;5068498;28;20179;-59
2022/01/02 08:28:53;;;;;;;3.30;2.17;;;;;;;18.89;56.94;100655.66;5068317;28;20654;-59
2022/01/02 08:31:18;;;;;;;2.60;1.80;;;;;;;18.88;56.62;100657.69;5068711;28;20665;-59
2022/01/02 08:33:43;;;;;;;3.50;2.20;;;;;;;18.87;57.06;100663.78;5050005;28;20183;-59
2022/01/02 08:36:09;;;;;;;2.73;2.03;;;;;;;18.92;56.51;100669.22;5068146;28;20529;-59
2022/01/02 08:38:34;;;;;;;2.90;1.90;;;;;;;18.92;56.57;100674.94;5068767;28;20417;-59
2022/01/02 08:41:00;;;;;;;2.60;1.93;;;;;;;18.94;56.57;100672.53;5072443;28;20194;-59
2022/01/02 08:43:25;;;;;;;2.50;1.93;;;;;;;18.95;56.64;100672.16;5068768;28;20179;-59
2022/01/02 08:45:51;;;;;;;3.80;2.10;;;;;;;18.93;56.67;100671.72;5062285;28;20190;-59
2022/01/02 08:48:16;;;;;;;2.60;1.97;;;;;;;18.89;56.90;100670.78;5072589;28;20183;-59
2022/01/02 08:50:42;;;;;;;2.90;1.80;;;;;;;18.90;56.96;100677.31;5071349;28;20693;-59
2022/01/02 08:53:07;;;;;;;3.03;2.30;;;;;;;18.93;56.62;100676.59;5072024;28;20178;-59
2022/01/02 08:55:34;;;;;;;3.47;2.10;;;;;;;18.93;56.75;100680.28;5072635;28;20182;-59
2022/01/02 08:58:01;;;;;;;3.00;2.10;;;;;;;18.92;56.60;100687.19;5071279;28;20171;-59
2022/01/02 09:00:27;;;;;;;2.80;1.73;;;;;;;18.93;56.56;100660.28;5072042;28;20544;-59
2022/01/02 09:02:52;;;;;;;3.20;2.27;;;;;;;18.92;56.49;100652.06;5071846;28;20765;-60
2022/01/02 09:05:18;;;;;;;3.80;2.30;;;;;;;18.95;56.51;100646.41;5071733;28;20167;-59
2022/01/02 09:07:44;;;;;;;2.97;2.00;;;;;;;18.91;56.88;100665.53;5071891;28;20191;-59
2022/01/02 09:10:10;;;;;;;3.00;2.07;;;;;;;18.91;56.90;100671.25;5054080;28;20914;-59
2022/01/02 09:12:35;;;;;;;2.93;2.10;;;;;;;18.94;56.40;100675.38;5071710;28;20171;-59
2022/01/02 09:15:01;;;;;;;3.40;2.27;;;;;;;18.94;56.78;100672.53;5071457;28;20168;-59
2022/01/02 09:17:26;;;;;;;3.10;2.10;;;;;;;18.92;56.68;100664.31;5071545;28;20174;-59
2022/01/02 09:19:52;;;;;;;2.30;1.70;;;;;;;18.94;56.64;100673.38;5071070;28;20175;-59
2022/01/02 09:22:18;;;;;;;2.67;1.73;;;;;;;18.90;56.92;100678.16;5071048;28;20543;-59
2022/01/02 09:24:44;;;;;;;2.97;1.80;;;;;;;18.92;56.80;100674.94;5071710;28;20420;-59
2022/01/02 09:27:09;;;;;;;2.77;2.00;;;;;;;18.91;56.96;100681.88;5077132;28;20170;-59
2022/01/02 09:29:35;;;;;;;2.97;1.90;;;;;;;18.92;56.75;100694.97;5091639;28;20235;-59
2022/01/02 09:32:02;;;;;;;3.33;2.10;;;;;;;18.92;56.78;100694.97;5074721;28;20171;-59
2022/01/02 09:34:27;;;;;;;2.70;1.90;;;;;;;18.93;56.44;100685.19;5070448;28;20228;-59
2022/01/02 09:36:52;;;;;;;2.70;1.90;;;;;;;18.90;56.93;100681.03;5070773;28;20413;-59
2022/01/02 09:39:18;;;;;;;3.60;1.80;;;;;;;18.90;56.88;100640.97;5068565;28;20184;-59
2022/01/02 09:41:43;;;;;;;3.23;2.13;;;;;;;18.90;56.68;100620.09;5070706;28;20171;-59
2022/01/02 09:44:09;;;;;;;2.73;1.90;;;;;;;18.90;56.95;100643.84;5071136;28;20174;-59
2022/01/02 09:46:34;;;;;;;2.87;2.00;;;;;;;18.90;56.94;100652.41;5070551;28;20661;-59
2022/01/02 09:48:59;;;;;;;2.93;2.00;;;;;;;18.92;56.46;100655.72;5053141;28;20529;-59
2022/01/02 09:51:26;;;;;;;2.87;2.20;;;;;;;18.90;56.55;100640.13;5070171;28;20635;-59
2022/01/02 09:53:52;;;;;;;3.90;2.50;;;;;;;18.89;56.46;100627.88;5070928;28;20178;-59
2022/01/02 09:56:18;;;;;;;2.70;1.70;;;;;;;18.87;57.09;100630.28;5071047;28;20428;-59
2022/01/02 09:58:44;;;;;;;3.20;2.00;;;;;;;18.91;56.87;100641.81;5069083;28;20469;-58
2022/01/02 10:01:19;;;;;;;2.77;1.90;;;;;;;18.92;56.46;100650.00;5052458;28;20191;-59
2022/01/02 10:03:53;;;;;;;3.03;1.80;;;;;;;18.92;56.52;100654.91;5070521;28;20935;-59
2022/01/02 10:06:19;;;;;;;2.87;2.00;;;;;;;18.87;57.27;100633.13;5070669;28;20448;-60
2022/01/02 10:08:46;;;;;;;2.77;1.90;;;;;;;18.90;56.96;100640.97;5070914;28;20422;-60
2022/01/02 10:11:19;;;;;;;2.60;1.80;;;;;;;18.91;56.59;100659.78;5032088;28;20639;-58
2022/01/02 10:13:49;;;;;;;2.60;1.77;;;;;;;18.93;56.47;100647.97;5050618;28;20549;-60
2022/01/02 10:16:19;;;;;;;2.70;1.73;;;;;;;18.92;56.66;100632.03;5049607;28;20422;-59
2022/01/02 10:18:45;;;;;;;2.90;1.90;;;;;;;18.88;56.94;100622.53;5064040;28;20417;-58
2022/01/02 10:21:10;;;;;;;3.10;2.27;;;;;;;18.89;56.95;100629.91;5068686;28;20424;-58
2022/01/02 10:23:36;;;;;;;2.50;1.93;;;;;;;18.91;56.62;100630.38;5069688;28;20178;-61
2022/01/02 10:26:01;;;;;;;2.90;1.90;;;;;;;18.91;56.73;100645.50;5070518;28;20179;-58
2022/01/02 10:28:36;;;;;;;2.87;2.00;;;;;;;18.90;57.05;100643.00;5069085;28;20889;-58
2022/01/02 10:31:07;;;;;;;2.80;1.70;;;;;;;18.91;56.75;100642.63;5051427;28;20533;-58
2022/01/02 10:33:57;;;;;;;2.80;2.20;;;;;;;18.88;56.92;100646.25;5069304;28;20429;-61
2022/01/02 10:36:27;;;;;;;2.57;1.80;;;;;;;18.90;56.71;100632.41;5068927;28;20402;-58
2022/01/02 10:39:06;;;;;;;2.77;2.07;;;;;;;18.85;57.09;100631.84;5069693;28;20456;-58
2022/01/02 10:41:33;;;;;;;3.00;2.00;;;;;;;18.89;56.93;100627.03;5069609;28;20405;-57
2022/01/02 10:44:18;;;;;;;2.70;1.90;;;;;;;18.86;57.31;100610.66;5069855;28;20425;-58
2022/01/02 10:47:05;;;;;;;2.80;2.13;;;;;;;18.87;56.88;100600.84;5069675;28;20413;-58
2022/01/02 10:50:02;;;;;;;2.77;2.13;;;;;;;18.90;56.79;100609.50;5069926;28;20864;-58
2022/01/02 10:52:28;;;;;;;3.90;2.20;;;;;;;18.91;56.94;100613.22;5069475;28;21023;-58
2022/01/02 10:54:56;;;;;;;3.00;1.80;;;;;;;18.92;56.72;100604.22;5069608;28;20421;-58
2022/01/02 10:57:21;;;;;;;3.37;2.30;;;;;;;18.91;56.93;100613.22;5069076;28;20405;-58
2022/01/02 10:59:47;;;;;;;2.80;1.90;;;;;;;18.95;56.38;100614.94;5069131;28;20975;-58
2022/01/02 11:02:13;;;;;;;2.67;1.80;;;;;;;18.90;56.61;100608.66;5069903;28;20541;-58
2022/01/02 11:04:45;;;;;;;2.73;1.63;;;;;;;18.90;57.06;100603.78;5069848;28;20189;-58
2022/01/02 11:07:10;;;;;;;3.90;2.13;;;;;;;18.91;56.82;100602.56;5068706;28;20433;-58
2022/01/02 11:09:36;;;;;;;2.97;2.00;;;;;;;18.90;56.89;100600.94;5034838;28;20479;-58
2022/01/02 11:12:01;;;;;;;3.27;2.17;;;;;;;18.89;56.93;100598.44;5050950;28;20799;-58
2022/01/02 11:14:27;;;;;;;3.00;1.97;;;;;;;18.91;56.81;100601.78;5069623;28;20182;-58
2022/01/02 11:16:52;;;;;;;2.70;1.80;;;;;;;18.88;56.97;100577.59;5069257;28;20174;-58
2022/01/02 11:19:18;;;;;;;3.40;2.57;;;;;;;18.88;56.76;100563.28;5085411;28;20173;-58
2022/01/02 11:21:44;;;;;;;2.60;1.73;;;;;;;18.89;57.12;100566.97;5081826;28;20167;-58
2022/01/02 11:24:18;;;;;;;3.33;2.30;;;;;;;18.92;56.61;100575.63;5050287;28;20753;-58
2022/01/02 11:26:48;;;;;;;2.97;2.17;;;;;;;18.90;56.72;100586.63;5068251;28;20448;-58
2022/01/02 11:29:14;;;;;;;2.77;1.90;;;;;;;18.88;56.86;100580.47;5068914;28;20453;-58
2022/01/02 11:31:43;;;;;;;3.00;2.20;;;;;;;18.91;56.64;100578.88;5050485;28;20441;-58